< < Back
Terminal Aerodrome Forecast


Current Version              Previous Versions:   1  2  3  4  5  6  7  8  9  

Terminal Aerodrome Forecast

115
FTUS42 KFFC 240520
TAFCSG
TAF
KCSG 240520Z 2406/2506 00000KT P6SM SCT250
     FM241500 21006KT P6SM FEW060
     FM250200 00000KT P6SM SKC=

Latest METAR

762
SAUS70 KWBC 241000
MTRCSG
METAR KCSG 240951Z AUTO 00000KT 10SM BKN080 16/13 A3006 RMK AO2 SLP176
T01610133


USA.gov is the U.S. government's official web portal to all federal, state and local government web resources and services.